createdAt,value
2022-08-09T00:01:19.346Z,100.00
2022-08-09T00:04:00.609Z,100.00
2022-08-09T00:06:36.377Z,100.00
2022-08-09T00:09:04.017Z,100.00
2022-08-09T00:12:02.854Z,100.00
2022-08-09T00:14:21.983Z,100.00
2022-08-09T00:16:58.233Z,100.00
2022-08-09T00:19:27.681Z,100.00
2022-08-09T00:21:56.930Z,100.00
2022-08-09T00:24:27.822Z,100.00
2022-08-09T00:26:57.515Z,100.00
2022-08-09T00:29:39.505Z,100.00
2022-08-09T00:32:25.744Z,100.00
2022-08-09T00:34:56.381Z,100.00
2022-08-09T00:37:24.145Z,100.00
2022-08-09T00:40:14.088Z,100.00
2022-08-09T00:44:14.339Z,100.00
2022-08-09T00:45:27.936Z,100.00
2022-08-09T00:47:55.688Z,100.00
2022-08-09T00:50:26.492Z,100.00
2022-08-09T00:52:55.024Z,100.00
2022-08-09T00:56:03.179Z,100.00
2022-08-09T00:58:14.715Z,100.00
2022-08-09T01:00:53.801Z,100.00
2022-08-09T01:03:46.557Z,100.00
2022-08-09T01:06:53.422Z,100.00
2022-08-09T01:09:54.059Z,100.00
2022-08-09T01:12:51.676Z,100.00
2022-08-09T01:15:24.866Z,100.00
2022-08-09T01:18:05.591Z,100.00
2022-08-09T01:20:57.890Z,100.00
2022-08-09T01:24:02.651Z,100.00
2022-08-09T01:26:52.906Z,100.00
2022-08-09T01:29:28.387Z,100.00
2022-08-09T01:32:31.698Z,100.00
2022-08-09T01:35:00.286Z,100.00
2022-08-09T01:38:05.840Z,100.00
2022-08-09T01:40:28.579Z,100.00
2022-08-09T01:42:57.155Z,100.00
2022-08-09T01:45:25.240Z,100.00
2022-08-09T01:47:53.519Z,100.00
2022-08-09T01:50:29.996Z,100.00
2022-08-09T01:53:20.139Z,100.00
2022-08-09T01:55:50.234Z,100.00
2022-08-09T01:58:18.026Z,100.00
2022-08-09T02:00:50.507Z,100.00
2022-08-09T02:03:19.523Z,100.00
2022-08-09T02:06:03.106Z,100.00
2022-08-09T02:08:58.419Z,100.00
2022-08-09T02:11:42.903Z,100.00
2022-08-09T02:14:15.907Z,100.00
2022-08-09T02:17:14.974Z,100.00
2022-08-09T02:19:43.910Z,100.00
2022-08-09T02:22:19.104Z,100.00
2022-08-09T02:24:58.216Z,100.00
2022-08-09T02:27:57.952Z,100.00
2022-08-09T02:30:17.863Z,100.00
2022-08-09T02:32:47.612Z,100.00
2022-08-09T02:35:46.381Z,100.00
2022-08-09T02:38:11.399Z,100.00
2022-08-09T02:40:50.101Z,100.00
2022-08-09T02:43:19.483Z,100.00
2022-08-09T02:45:50.103Z,100.00
2022-08-09T02:48:30.461Z,100.00
2022-08-09T02:51:01.681Z,100.00
2022-08-09T02:53:34.303Z,100.00
2022-08-09T02:56:03.627Z,100.00
2022-08-09T02:58:36.351Z,100.00
2022-08-09T03:01:10.791Z,100.00
2022-08-09T03:04:18.466Z,100.00
2022-08-09T03:06:28.176Z,100.00
2022-08-09T03:08:58.093Z,100.00
2022-08-09T03:11:30.194Z,100.00
2022-08-09T03:14:15.921Z,100.00
2022-08-09T03:16:45.058Z,100.00
2022-08-09T03:19:57.775Z,100.00
2022-08-09T03:22:12.210Z,100.00
2022-08-09T03:25:06.541Z,100.00
2022-08-09T03:27:45.370Z,100.00
2022-08-09T03:30:30.045Z,100.00
2022-08-09T03:33:18.715Z,100.00
2022-08-09T03:36:16.051Z,100.00
2022-08-09T03:38:42.858Z,100.00
2022-08-09T03:41:16.349Z,100.00
2022-08-09T03:44:04.069Z,100.00
2022-08-09T03:46:34.089Z,100.00
2022-08-09T03:49:04.323Z,100.00
2022-08-09T03:51:56.577Z,100.00
2022-08-09T03:54:31.820Z,100.00
2022-08-09T03:57:04.348Z,100.00
2022-08-09T03:59:55.013Z,100.00
2022-08-09T04:02:30.269Z,100.00
2022-08-09T04:05:01.334Z,100.00
2022-08-09T04:07:52.537Z,100.00
2022-08-09T04:10:29.208Z,100.00
2022-08-09T04:13:00.673Z,100.00
2022-08-09T04:16:17.911Z,100.00
2022-08-09T04:18:19.256Z,100.00
2022-08-09T04:20:48.118Z,100.00
2022-08-09T04:23:17.296Z,100.00
2022-08-09T04:25:52.242Z,100.00
2022-08-09T04:28:33.830Z,100.00
2022-08-09T04:31:09.499Z,100.00
2022-08-09T04:33:51.777Z,100.00
2022-08-09T04:36:31.572Z,100.00
2022-08-09T04:39:01.403Z,100.00
2022-08-09T04:41:32.364Z,100.00
2022-08-09T04:44:05.767Z,100.00
2022-08-09T04:46:38.065Z,100.00
2022-08-09T04:49:40.070Z,100.00
2022-08-09T04:52:12.058Z,100.00
2022-08-09T04:54:51.746Z,100.00
2022-08-09T04:57:23.832Z,100.00
2022-08-09T04:59:54.243Z,100.00
2022-08-09T05:02:23.919Z,100.00
2022-08-09T05:04:55.527Z,100.00
2022-08-09T05:07:25.085Z,100.00
2022-08-09T05:09:57.757Z,100.00
2022-08-09T05:12:29.887Z,100.00
2022-08-09T05:14:58.770Z,100.00
2022-08-09T05:18:55.541Z,100.00
2022-08-09T05:20:14.108Z,100.00
2022-08-09T05:23:54.697Z,100.00
2022-08-09T05:25:32.366Z,100.00
2022-08-09T05:28:00.589Z,100.00
2022-08-09T05:30:29.907Z,100.00
2022-08-09T05:33:00.487Z,100.00
2022-08-09T05:35:29.810Z,100.00
2022-08-09T05:37:59.699Z,100.00
2022-08-09T05:40:28.741Z,100.00
2022-08-09T05:42:56.904Z,100.00
2022-08-09T05:45:24.865Z,100.00
2022-08-09T05:47:59.238Z,100.00
2022-08-09T05:50:39.898Z,100.00
2022-08-09T05:53:21.618Z,100.00
2022-08-09T05:56:01.489Z,100.00
2022-08-09T05:58:29.421Z,100.00
2022-08-09T06:00:58.230Z,100.00
2022-08-09T06:03:34.946Z,100.00
2022-08-09T06:06:11.563Z,100.00
2022-08-09T06:08:39.254Z,100.00
2022-08-09T06:11:17.429Z,100.00
2022-08-09T06:13:47.392Z,100.00
2022-08-09T06:16:16.207Z,100.00
2022-08-09T06:18:44.101Z,100.00
2022-08-09T06:21:12.271Z,100.00
2022-08-09T06:23:57.302Z,100.00
2022-08-09T06:26:28.941Z,100.00
2022-08-09T06:29:01.104Z,100.00
2022-08-09T06:31:39.996Z,100.00
2022-08-09T06:34:22.811Z,100.00
2022-08-09T06:36:59.560Z,100.00
2022-08-09T06:39:48.524Z,100.00
2022-08-09T06:42:24.935Z,100.00
2022-08-09T06:44:57.310Z,100.00
2022-08-09T06:47:25.477Z,100.00
2022-08-09T06:50:15.003Z,100.00
2022-08-09T06:52:47.180Z,100.00
2022-08-09T06:55:18.945Z,100.00
2022-08-09T06:58:02.956Z,100.00
2022-08-09T07:00:49.067Z,100.00
2022-08-09T07:03:28.591Z,100.00
2022-08-09T07:06:04.179Z,100.00
2022-08-09T07:08:35.286Z,100.00
2022-08-09T07:11:06.551Z,100.00
2022-08-09T07:13:45.036Z,100.00
2022-08-09T07:16:41.614Z,100.00
2022-08-09T07:19:15.523Z,100.00
2022-08-09T07:21:55.778Z,100.00
2022-08-09T07:24:32.155Z,100.00
2022-08-09T07:27:26.711Z,100.00
2022-08-09T07:30:00.004Z,100.00
2022-08-09T07:32:32.256Z,100.00
2022-08-09T07:35:10.598Z,100.00
2022-08-09T07:37:43.825Z,100.00
2022-08-09T07:40:17.173Z,100.00
2022-08-09T07:42:54.226Z,100.00
2022-08-09T07:45:37.765Z,100.00
2022-08-09T07:48:29.497Z,100.00
2022-08-09T07:51:10.074Z,100.00
2022-08-09T07:54:07.099Z,100.00
2022-08-09T07:56:45.074Z,100.00
2022-08-09T07:59:34.854Z,100.00
2022-08-09T08:02:08.986Z,100.00
2022-08-09T08:04:37.793Z,100.00
2022-08-09T08:07:15.394Z,100.00
2022-08-09T08:10:08.985Z,100.00
2022-08-09T08:12:43.827Z,100.00
2022-08-09T08:15:16.949Z,99.79
2022-08-09T08:17:53.743Z,100.00
2022-08-09T08:20:28.597Z,100.00
2022-08-09T08:23:01.668Z,99.82
2022-08-09T08:25:44.097Z,99.89
2022-08-09T08:28:14.286Z,100.00
2022-08-09T08:30:47.523Z,100.00
2022-08-09T08:33:21.788Z,99.94
2022-08-09T08:35:59.012Z,99.75
2022-08-09T08:38:29.533Z,99.71
2022-08-09T08:40:58.322Z,99.59
2022-08-09T08:43:27.690Z,99.47
2022-08-09T08:46:24.837Z,99.21
2022-08-09T08:48:51.391Z,99.68
2022-08-09T08:51:23.050Z,99.79
2022-08-09T08:54:03.515Z,99.99
2022-08-09T08:56:39.802Z,100.00
2022-08-09T08:59:19.416Z,100.00
2022-08-09T09:01:52.983Z,99.69
2022-08-09T09:04:31.949Z,98.87
2022-08-09T09:07:09.925Z,98.28
2022-08-09T09:09:58.080Z,97.53
2022-08-09T09:12:29.188Z,98.00
2022-08-09T09:15:00.871Z,98.25
2022-08-09T09:17:48.613Z,97.67
2022-08-09T09:20:16.468Z,97.22
2022-08-09T09:23:02.105Z,97.48
2022-08-09T09:26:03.840Z,97.36
2022-08-09T09:29:02.545Z,96.70
2022-08-09T09:32:03.880Z,96.72
2022-08-09T09:34:18.023Z,96.84
2022-08-09T09:36:53.069Z,96.56
2022-08-09T09:39:25.714Z,96.31
2022-08-09T09:42:29.894Z,96.02
2022-08-09T09:45:04.499Z,96.19
2022-08-09T09:47:42.176Z,96.17
2022-08-09T09:50:39.844Z,95.33
2022-08-09T09:53:20.759Z,95.34
2022-08-09T09:56:04.509Z,95.73
2022-08-09T09:58:47.665Z,95.96
2022-08-09T10:01:31.401Z,95.59
2022-08-09T10:04:23.028Z,95.15
2022-08-09T10:07:03.670Z,95.17
2022-08-09T10:09:57.368Z,94.65
2022-08-09T10:12:31.515Z,93.33
2022-08-09T10:15:04.098Z,92.95
2022-08-09T10:17:50.830Z,92.25
2022-08-09T10:20:35.844Z,92.93
2022-08-09T10:23:20.856Z,93.32
2022-08-09T10:26:06.159Z,93.59
2022-08-09T10:28:37.752Z,93.20
2022-08-09T10:34:10.830Z,91.26
2022-08-09T10:36:43.600Z,89.69
2022-08-09T10:39:15.748Z,84.55
2022-08-09T10:41:47.663Z,86.56
2022-08-09T10:44:21.739Z,87.30
2022-08-09T10:48:12.865Z,85.13
2022-08-09T10:50:01.338Z,85.73
2022-08-09T10:53:00.077Z,85.86
2022-08-09T10:55:55.044Z,84.37
2022-08-09T10:58:34.514Z,84.16
2022-08-09T11:03:02.692Z,82.54
2022-08-09T11:04:19.902Z,82.80
2022-08-09T11:06:59.683Z,82.64
2022-08-09T11:09:48.006Z,78.38
2022-08-09T11:12:17.777Z,76.01
2022-08-09T11:14:54.785Z,75.45
2022-08-09T11:17:24.381Z,77.05
2022-08-09T11:20:10.044Z,76.84
2022-08-09T11:22:47.355Z,78.25
2022-08-09T11:25:44.834Z,77.54
2022-08-09T11:28:38.670Z,77.67
2022-08-09T11:31:43.154Z,77.51
2022-08-09T11:34:20.256Z,77.21
2022-08-09T11:36:48.285Z,73.19
2022-08-09T11:39:16.848Z,71.77
2022-08-09T11:41:45.219Z,69.03
2022-08-09T11:44:13.535Z,69.96
2022-08-09T11:46:52.825Z,71.30
2022-08-09T11:50:54.922Z,71.33
2022-08-09T11:53:21.125Z,70.75
2022-08-09T11:55:53.361Z,70.31
2022-08-09T11:58:32.801Z,71.59
2022-08-09T12:01:15.437Z,72.01
2022-08-09T12:04:01.235Z,70.78
2022-08-09T12:06:32.660Z,71.91
2022-08-09T12:09:06.519Z,72.02
2022-08-09T12:12:02.230Z,72.96
2022-08-09T12:14:36.722Z,72.90
2022-08-09T12:17:27.584Z,72.23
2022-08-09T12:19:59.449Z,72.19
2022-08-09T12:22:29.664Z,71.82
2022-08-09T12:25:36.842Z,71.47
2022-08-09T12:28:59.850Z,69.47
2022-08-09T12:31:11.154Z,70.50
2022-08-09T12:34:00.957Z,66.90
2022-08-09T12:36:33.515Z,69.27
2022-08-09T12:39:02.279Z,69.83
2022-08-09T12:41:38.210Z,70.83
2022-08-09T12:44:24.516Z,70.59
2022-08-09T12:46:57.125Z,65.35
2022-08-09T12:49:24.923Z,64.76
2022-08-09T12:52:02.739Z,65.62
2022-08-09T12:56:12.036Z,65.22
2022-08-09T12:57:49.246Z,64.54
2022-08-09T13:00:48.933Z,65.45
2022-08-09T13:03:57.393Z,67.17
2022-08-09T13:06:49.304Z,68.34
2022-08-09T13:09:38.122Z,66.91
2022-08-09T13:12:08.706Z,65.79
2022-08-09T13:14:44.121Z,67.31
2022-08-09T13:17:43.957Z,66.71
2022-08-09T13:20:23.632Z,67.39
2022-08-09T13:23:06.125Z,66.97
2022-08-09T13:25:54.811Z,68.30
2022-08-09T13:28:34.105Z,68.75
2022-08-09T13:32:17.962Z,66.90
2022-08-09T13:33:56.680Z,67.70
2022-08-09T13:36:42.415Z,67.41
2022-08-09T13:41:19.499Z,66.97
2022-08-09T13:42:05.202Z,66.54
2022-08-09T13:44:35.004Z,67.25
2022-08-09T13:47:29.048Z,68.44
2022-08-09T13:49:57.835Z,69.05
2022-08-09T13:52:30.839Z,68.77
2022-08-09T13:55:04.508Z,67.77
2022-08-09T13:57:39.593Z,66.11
2022-08-09T14:00:15.419Z,67.22
2022-08-09T14:03:03.189Z,67.29
2022-08-09T14:05:58.143Z,66.59
2022-08-09T14:08:26.822Z,67.12
2022-08-09T14:10:56.625Z,67.91
2022-08-09T14:14:14.990Z,67.09
2022-08-09T14:16:28.125Z,67.83
2022-08-09T14:19:04.557Z,68.13
2022-08-09T14:21:51.238Z,68.53
2022-08-09T14:24:32.161Z,68.53
2022-08-09T14:27:28.890Z,68.76
2022-08-09T14:30:36.910Z,68.27
2022-08-09T14:33:11.312Z,68.26
2022-08-09T14:35:52.598Z,67.65
2022-08-09T14:38:21.174Z,67.07
2022-08-09T14:41:02.027Z,65.77
2022-08-09T14:43:53.584Z,66.50
2022-08-09T14:46:57.369Z,66.51
2022-08-09T14:49:15.209Z,66.63
2022-08-09T14:51:44.512Z,66.75
2022-08-09T14:54:15.745Z,67.40
2022-08-09T14:56:57.839Z,67.76
2022-08-09T14:59:29.137Z,68.06
2022-08-09T15:01:58.554Z,68.44
2022-08-09T15:04:26.243Z,68.29
2022-08-09T15:07:05.353Z,68.49
2022-08-09T15:10:03.446Z,68.60
2022-08-09T15:12:40.005Z,68.99
2022-08-09T15:15:13.392Z,69.10
2022-08-09T15:17:52.594Z,69.01
2022-08-09T15:21:57.536Z,68.95
2022-08-09T15:24:00.653Z,69.39
2022-08-09T15:25:59.754Z,70.05
2022-08-09T15:28:33.070Z,70.74
2022-08-09T15:31:10.078Z,71.43
2022-08-09T15:34:15.394Z,72.20
2022-08-09T15:36:32.931Z,72.74
2022-08-09T15:39:00.856Z,73.53
2022-08-09T15:41:32.579Z,74.51
2022-08-09T15:44:02.021Z,75.01
2022-08-09T15:46:33.190Z,75.92
2022-08-09T15:49:21.039Z,76.32
2022-08-09T15:52:04.337Z,76.85
2022-08-09T15:54:46.100Z,77.47
2022-08-09T15:57:34.067Z,77.91
2022-08-09T16:00:07.487Z,78.60
2022-08-09T16:02:35.689Z,78.94
2022-08-09T16:05:06.799Z,79.21
2022-08-09T16:07:39.006Z,79.56
2022-08-09T16:10:11.103Z,79.93
2022-08-09T16:12:50.211Z,80.18
2022-08-09T16:16:10.077Z,80.57
2022-08-09T16:18:08.692Z,80.88
2022-08-09T16:20:41.554Z,80.88
2022-08-09T16:23:11.272Z,81.34
2022-08-09T16:25:40.668Z,81.66
2022-08-09T16:28:12.285Z,81.88
2022-08-09T16:30:44.767Z,82.19
2022-08-09T16:33:23.332Z,82.44
2022-08-09T16:35:56.064Z,82.68
2022-08-09T16:38:25.722Z,82.98
2022-08-09T16:40:53.855Z,83.18
2022-08-09T16:43:23.190Z,83.56
2022-08-09T16:45:53.710Z,84.33
2022-08-09T16:48:42.505Z,84.63
2022-08-09T16:51:13.912Z,85.03
2022-08-09T16:56:32.139Z,85.56
2022-08-09T16:59:01.291Z,86.02
2022-08-09T17:01:33.552Z,86.43
2022-08-09T17:04:02.136Z,87.02
2022-08-09T17:06:33.310Z,87.27
2022-08-09T17:09:12.079Z,87.26
2022-08-09T17:11:52.345Z,87.51
2022-08-09T17:14:27.377Z,87.87
2022-08-09T17:17:00.125Z,88.25
2022-08-09T17:20:04.969Z,88.59
2022-08-09T17:22:30.948Z,88.64
2022-08-09T17:25:02.837Z,88.75
2022-08-09T17:27:33.509Z,89.00
2022-08-09T17:30:06.828Z,89.40
2022-08-09T17:32:44.312Z,90.12
2022-08-09T17:35:14.527Z,90.40
2022-08-09T17:38:13.178Z,90.57
2022-08-09T17:40:33.509Z,90.86
2022-08-09T17:43:32.819Z,90.86
2022-08-09T17:46:03.119Z,91.05
2022-08-09T17:48:35.106Z,91.09
2022-08-09T17:51:19.474Z,91.15
2022-08-09T17:53:52.944Z,91.05
2022-08-09T17:56:32.447Z,90.91
2022-08-09T17:59:09.642Z,90.89
2022-08-09T18:02:06.487Z,90.70
2022-08-09T18:04:28.939Z,90.78
2022-08-09T18:06:57.307Z,90.74
2022-08-09T18:09:40.430Z,90.74
2022-08-09T18:12:40.861Z,90.58
2022-08-09T18:15:04.676Z,90.57
2022-08-09T18:18:02.929Z,90.60
2022-08-09T18:20:59.657Z,90.56
2022-08-09T18:23:07.832Z,90.54
2022-08-09T18:25:57.722Z,90.72
2022-08-09T18:30:36.240Z,90.76
2022-08-09T18:31:24.944Z,90.84
2022-08-09T18:34:00.203Z,90.78
2022-08-09T18:36:32.417Z,91.08
2022-08-09T18:39:05.002Z,91.16
2022-08-09T18:41:34.545Z,91.31
2022-08-09T18:44:13.122Z,91.42
2022-08-09T18:46:47.436Z,91.63
2022-08-09T18:49:19.397Z,91.83
2022-08-09T18:51:55.318Z,92.01
2022-08-09T18:54:29.957Z,92.29
2022-08-09T18:57:06.085Z,92.60
2022-08-09T18:59:48.700Z,92.77
2022-08-09T19:02:20.205Z,93.01
2022-08-09T19:05:03.275Z,93.20
2022-08-09T19:07:32.783Z,93.53
2022-08-09T19:10:15.447Z,93.79
2022-08-09T19:12:51.327Z,94.00
2022-08-09T19:15:29.196Z,94.35
2022-08-09T19:17:58.573Z,94.40
2022-08-09T19:20:26.810Z,94.33
2022-08-09T19:23:02.555Z,94.50
2022-08-09T19:26:01.150Z,94.79
2022-08-09T19:28:21.166Z,94.83
2022-08-09T19:30:48.752Z,95.18
2022-08-09T19:33:20.396Z,95.55
2022-08-09T19:35:56.820Z,95.78
2022-08-09T19:38:27.628Z,95.69
2022-08-09T19:40:57.725Z,95.61
2022-08-09T19:43:58.161Z,95.77
2022-08-09T19:46:33.991Z,95.89
2022-08-09T19:50:06.715Z,96.12
2022-08-09T19:51:55.302Z,96.09
2022-08-09T19:54:27.232Z,96.15
2022-08-09T19:56:55.667Z,96.32
2022-08-09T19:59:57.677Z,96.32
2022-08-09T20:02:36.194Z,96.43
2022-08-09T20:05:09.808Z,96.57
2022-08-09T20:07:59.738Z,96.67
2022-08-09T20:10:34.329Z,96.78
2022-08-09T20:13:06.286Z,96.90
2022-08-09T20:16:37.769Z,96.97
2022-08-09T20:18:27.885Z,97.24
2022-08-09T20:20:57.167Z,97.43
2022-08-09T20:23:39.839Z,97.62
2022-08-09T20:26:10.200Z,97.83
2022-08-09T20:28:48.746Z,98.10
2022-08-09T20:31:17.967Z,98.32
2022-08-09T20:33:46.694Z,98.49
2022-08-09T20:36:20.414Z,98.62
2022-08-09T20:41:37.663Z,98.99
2022-08-09T20:44:10.375Z,99.18
2022-08-09T20:46:42.908Z,99.19
2022-08-09T20:49:13.730Z,99.41
2022-08-09T20:51:42.197Z,99.55
2022-08-09T20:54:16.868Z,99.81
2022-08-09T20:56:47.113Z,99.90
2022-08-09T20:59:50.023Z,99.99
2022-08-09T21:02:05.530Z,100.00
2022-08-09T21:05:52.347Z,100.00
2022-08-09T21:07:20.925Z,100.00
2022-08-09T21:09:58.351Z,100.00
2022-08-09T21:12:56.397Z,100.00
2022-08-09T21:15:17.431Z,100.00
2022-08-09T21:18:20.878Z,100.00
2022-08-09T21:20:39.062Z,100.00
2022-08-09T21:23:09.165Z,100.00
2022-08-09T21:25:59.248Z,100.00
2022-08-09T21:28:34.787Z,100.00
2022-08-09T21:31:16.461Z,100.00
2022-08-09T21:33:52.563Z,100.00
2022-08-09T21:36:28.027Z,100.00
2022-08-09T21:38:59.215Z,100.00
2022-08-09T21:42:05.034Z,100.00
2022-08-09T21:44:34.507Z,100.00
2022-08-09T21:47:08.861Z,100.00
2022-08-09T21:49:40.006Z,100.00
2022-08-09T21:52:16.362Z,100.00
2022-08-09T21:54:57.128Z,100.00
2022-08-09T21:57:39.585Z,100.00
2022-08-09T22:00:33.580Z,100.00
2022-08-09T22:03:05.965Z,100.00
2022-08-09T22:05:37.450Z,100.00
2022-08-09T22:08:14.641Z,100.00
2022-08-09T22:11:00.858Z,100.00
2022-08-09T22:13:34.927Z,100.00
2022-08-09T22:16:08.327Z,100.00
2022-08-09T22:18:54.327Z,100.00
2022-08-09T22:21:27.234Z,100.00
2022-08-09T22:24:17.140Z,100.00
2022-08-09T22:26:51.208Z,100.00
2022-08-09T22:29:24.051Z,100.00
2022-08-09T22:31:57.967Z,100.00
2022-08-09T22:34:26.920Z,100.00
2022-08-09T22:36:56.583Z,100.00
2022-08-09T22:39:56.166Z,100.00
2022-08-09T22:42:21.364Z,100.00
2022-08-09T22:48:04.621Z,100.00
2022-08-09T22:48:18.327Z,100.00
2022-08-09T22:50:30.602Z,100.00
2022-08-09T22:52:59.344Z,100.00
2022-08-09T22:56:07.157Z,100.00
2022-08-09T22:58:20.235Z,100.00
2022-08-09T23:01:05.499Z,100.00
2022-08-09T23:04:04.816Z,100.00
2022-08-09T23:06:34.869Z,100.00
2022-08-09T23:09:07.462Z,100.00
2022-08-09T23:11:35.437Z,100.00
2022-08-09T23:14:04.066Z,100.00
2022-08-09T23:16:37.817Z,100.00
2022-08-09T23:19:05.474Z,100.00
2022-08-09T23:21:33.747Z,100.00
2022-08-09T23:24:06.973Z,100.00
2022-08-09T23:26:36.275Z,100.00
2022-08-09T23:29:05.962Z,100.00
2022-08-09T23:31:34.038Z,100.00
2022-08-09T23:34:03.668Z,100.00
2022-08-09T23:36:33.743Z,100.00
2022-08-09T23:39:02.561Z,100.00
2022-08-09T23:41:30.187Z,100.00
2022-08-09T23:44:02.131Z,100.00
2022-08-09T23:46:30.616Z,100.00
2022-08-09T23:48:59.461Z,100.00
2022-08-09T23:51:27.694Z,100.00
2022-08-09T23:54:02.927Z,100.00
2022-08-09T23:56:52.540Z,100.00
2022-08-09T23:59:21.173Z,100.00
